createdAt,value
2018-07-11T00:01:31.995Z,38.50
2018-07-11T00:03:59.508Z,38.50
2018-07-11T00:06:27.056Z,38.50
2018-07-11T00:08:54.575Z,38.40
2018-07-11T00:11:22.121Z,38.50
2018-07-11T00:13:49.756Z,38.40
2018-07-11T00:16:17.676Z,38.40
2018-07-11T00:18:45.180Z,38.40
2018-07-11T00:21:12.700Z,38.40
2018-07-11T00:23:40.197Z,38.50
2018-07-11T00:26:08.747Z,38.40
2018-07-11T00:28:36.256Z,38.50
2018-07-11T00:31:03.774Z,38.50
2018-07-11T00:33:31.584Z,38.50
2018-07-11T00:35:59.109Z,38.60
2018-07-11T00:38:26.850Z,38.60
2018-07-11T00:40:54.344Z,38.60
2018-07-11T00:43:22.114Z,38.70
2018-07-11T00:45:50.315Z,38.70
2018-07-11T00:48:17.838Z,38.60
2018-07-11T00:50:45.488Z,38.70
2018-07-11T00:53:13.497Z,38.90
2018-07-11T00:55:41.006Z,38.90
2018-07-11T00:58:10.557Z,38.90
2018-07-11T01:03:05.316Z,38.90
2018-07-11T01:05:32.825Z,39.00
2018-07-11T01:08:00.317Z,39.00
2018-07-11T01:10:27.833Z,39.00
2018-07-11T01:12:55.356Z,39.00
2018-07-11T01:15:22.843Z,39.00
2018-07-11T01:17:55.916Z,39.00
2018-07-11T01:20:23.438Z,39.00
2018-07-11T01:22:51.080Z,39.00
2018-07-11T01:25:18.578Z,38.90
2018-07-11T01:27:46.093Z,38.90
2018-07-11T01:30:13.596Z,39.00
2018-07-11T01:32:41.106Z,38.90
2018-07-11T01:35:08.650Z,38.90
2018-07-11T01:37:36.129Z,39.60
2018-07-11T01:40:03.648Z,38.90
2018-07-11T01:42:31.163Z,38.90
2018-07-11T01:44:58.676Z,38.90
2018-07-11T01:47:26.176Z,39.00
2018-07-11T01:49:53.680Z,38.90
2018-07-11T01:52:26.730Z,38.90
2018-07-11T01:54:54.232Z,38.80
2018-07-11T01:57:22.526Z,38.90
2018-07-11T01:59:50.033Z,38.90
2018-07-11T02:02:17.527Z,39.50
2018-07-11T02:04:45.049Z,38.90
2018-07-11T02:07:12.585Z,38.90
2018-07-11T02:09:40.141Z,38.80
2018-07-11T02:12:07.652Z,38.90
2018-07-11T02:14:35.388Z,39.00
2018-07-11T02:17:02.898Z,39.10
2018-07-11T02:19:30.421Z,38.90
2018-07-11T02:21:57.956Z,39.70
2018-07-11T02:24:25.682Z,39.10
2018-07-11T02:26:53.537Z,39.20
2018-07-11T02:29:21.195Z,39.20
2018-07-11T02:31:48.700Z,39.10
2018-07-11T02:34:16.280Z,39.20
2018-07-11T02:36:43.781Z,39.10
2018-07-11T02:39:11.294Z,39.20
2018-07-11T02:41:38.852Z,39.20
2018-07-11T02:44:06.416Z,39.10
2018-07-11T02:46:39.524Z,39.10
2018-07-11T02:49:07.021Z,39.10
2018-07-11T02:51:34.684Z,39.10
2018-07-11T02:54:02.190Z,39.10
2018-07-11T02:56:29.720Z,39.20
2018-07-11T02:58:57.233Z,39.20
2018-07-11T03:01:24.921Z,39.20
2018-07-11T03:03:52.437Z,39.20
2018-07-11T03:06:19.945Z,39.20
2018-07-11T03:08:47.445Z,39.20
2018-07-11T03:11:14.959Z,39.30
2018-07-11T03:13:42.454Z,39.30
2018-07-11T03:16:09.978Z,39.30
2018-07-11T03:18:37.486Z,39.20
2018-07-11T03:21:05.015Z,39.20
2018-07-11T03:23:32.519Z,39.40
2018-07-11T03:26:00.032Z,39.20
2018-07-11T03:28:27.560Z,39.40
2018-07-11T03:30:55.107Z,39.40
2018-07-11T03:33:22.639Z,39.40
2018-07-11T03:35:50.156Z,39.30
2018-07-11T03:38:17.720Z,39.50
2018-07-11T03:40:45.397Z,39.40
2018-07-11T03:43:13.161Z,39.40
2018-07-11T03:45:40.644Z,39.40
2018-07-11T03:48:08.074Z,39.50
2018-07-11T03:50:35.503Z,39.90
2018-07-11T03:53:02.926Z,39.40
2018-07-11T03:55:30.346Z,39.70
2018-07-11T03:57:57.779Z,39.70
2018-07-11T04:00:26.403Z,39.50
2018-07-11T04:02:55.347Z,39.50
2018-07-11T04:05:22.796Z,39.60
2018-07-11T04:07:50.326Z,39.60
2018-07-11T04:10:18.843Z,39.60
2018-07-11T04:12:46.327Z,39.70
2018-07-11T04:15:13.791Z,39.60
2018-07-11T04:17:41.215Z,39.70
2018-07-11T04:20:08.669Z,39.70
2018-07-11T04:22:36.099Z,39.80
2018-07-11T04:25:03.539Z,39.80
2018-07-11T04:27:31.087Z,39.80
2018-07-11T04:29:58.611Z,40.00
2018-07-11T04:32:26.704Z,40.20
2018-07-11T04:34:55.275Z,40.40
2018-07-11T04:37:22.739Z,40.10
2018-07-11T04:39:50.162Z,40.30
2018-07-11T04:42:17.600Z,40.20
2018-07-11T04:44:45.024Z,40.30
2018-07-11T04:47:12.551Z,40.30
2018-07-11T04:54:34.350Z,40.50
2018-07-11T04:57:01.778Z,40.40
2018-07-11T04:59:29.197Z,40.40
2018-07-11T05:01:56.847Z,40.40
2018-07-11T05:04:25.920Z,40.40
2018-07-11T05:06:54.351Z,43.70
2018-07-11T05:09:21.782Z,44.20
2018-07-11T05:11:49.219Z,46.30
2018-07-11T05:14:17.633Z,46.90
2018-07-11T05:16:45.113Z,46.90
2018-07-11T05:19:12.548Z,46.60
2018-07-11T05:21:39.992Z,46.50
2018-07-11T05:24:07.423Z,46.20
2018-07-11T05:29:02.073Z,45.20
2018-07-11T05:31:29.507Z,44.70
2018-07-11T05:33:56.946Z,44.30
2018-07-11T05:36:24.433Z,44.30
2018-07-11T05:38:51.815Z,44.00
2018-07-11T05:41:19.252Z,43.70
2018-07-11T05:43:46.687Z,43.40
2018-07-11T05:46:14.120Z,43.40
2018-07-11T05:48:41.549Z,43.20
2018-07-11T05:51:08.975Z,42.90
2018-07-11T05:53:36.402Z,42.90
2018-07-11T05:56:03.842Z,42.90
2018-07-11T05:58:31.272Z,42.90
2018-07-11T06:00:58.694Z,42.80
2018-07-11T06:03:26.127Z,42.80
2018-07-11T06:05:53.546Z,42.60
2018-07-11T06:08:20.979Z,42.60
2018-07-11T06:10:48.412Z,42.50
2018-07-11T06:13:15.854Z,42.50
2018-07-11T06:18:10.477Z,42.30
2018-07-11T06:20:37.910Z,42.40
2018-07-11T06:23:05.347Z,42.30
2018-07-11T06:25:32.782Z,42.20
2018-07-11T06:28:00.215Z,42.10
2018-07-11T06:30:27.651Z,42.00
2018-07-11T06:32:55.130Z,42.10
2018-07-11T06:35:22.616Z,41.90
2018-07-11T06:37:50.127Z,42.00
2018-07-11T06:40:17.639Z,41.80
2018-07-11T06:42:45.058Z,41.90
2018-07-11T06:45:12.631Z,42.00
2018-07-11T06:47:40.084Z,41.80
2018-07-11T06:50:07.539Z,41.70
2018-07-11T06:52:34.982Z,41.70
2018-07-11T06:55:02.426Z,41.80
2018-07-11T06:57:29.884Z,41.60
2018-07-11T06:59:57.295Z,41.60
2018-07-11T07:02:24.983Z,41.60
2018-07-11T07:04:52.406Z,41.60
2018-07-11T07:07:19.833Z,41.60
2018-07-11T07:09:47.261Z,41.60
2018-07-11T07:12:15.155Z,41.50
2018-07-11T07:14:42.597Z,41.50
2018-07-11T07:17:10.060Z,41.50
2018-07-11T07:19:37.526Z,41.40
2018-07-11T07:22:04.969Z,41.40
2018-07-11T07:24:32.425Z,41.40
2018-07-11T07:26:59.867Z,41.40
2018-07-11T07:29:27.301Z,41.40
2018-07-11T07:31:54.735Z,41.40
2018-07-11T07:34:22.179Z,41.40
2018-07-11T07:36:49.634Z,41.40
2018-07-11T07:39:17.063Z,41.30
2018-07-11T07:41:44.511Z,41.30
2018-07-11T07:44:12.626Z,41.30
2018-07-11T07:46:43.306Z,41.20
2018-07-11T07:49:10.735Z,41.20
2018-07-11T07:51:38.170Z,41.10
2018-07-11T07:54:05.597Z,41.20
2018-07-11T07:56:33.025Z,41.00
2018-07-11T07:59:00.471Z,41.00
2018-07-11T08:01:27.895Z,41.00
2018-07-11T08:03:55.327Z,41.00
2018-07-11T08:06:22.750Z,40.80
2018-07-11T08:08:50.187Z,40.80
2018-07-11T08:11:17.619Z,40.80
2018-07-11T08:13:45.075Z,40.70
2018-07-11T08:16:12.504Z,40.70
2018-07-11T08:18:39.987Z,40.70
2018-07-11T08:21:07.411Z,40.70
2018-07-11T08:23:41.682Z,40.60
2018-07-11T08:26:14.843Z,40.60
2018-07-11T08:29:48.435Z,40.70
2018-07-11T08:32:52.870Z,40.50
2018-07-11T08:36:24.819Z,40.70
2018-07-11T08:38:59.231Z,40.70
2018-07-11T08:41:32.322Z,40.70
2018-07-11T08:44:08.134Z,40.70
2018-07-11T08:46:41.363Z,40.80
2018-07-11T08:49:14.489Z,40.70
2018-07-11T08:51:51.692Z,40.70
2018-07-11T08:54:24.842Z,40.80
2018-07-11T08:56:57.996Z,40.60
2018-07-11T08:59:30.968Z,40.70
2018-07-11T09:02:02.711Z,40.60
2018-07-11T09:04:35.670Z,40.60
2018-07-11T09:07:13.495Z,40.60
2018-07-11T09:09:45.414Z,40.50
2018-07-11T09:12:16.734Z,40.50
2018-07-11T09:14:49.895Z,40.50
2018-07-11T09:17:22.971Z,40.40
2018-07-11T09:19:58.767Z,40.40
2018-07-11T09:22:38.746Z,40.40
2018-07-11T09:25:06.186Z,40.40
2018-07-11T09:27:33.615Z,40.40
2018-07-11T09:30:01.042Z,40.40
2018-07-11T09:32:28.470Z,41.10
2018-07-11T09:34:55.895Z,40.40
2018-07-11T09:37:23.336Z,40.40
2018-07-11T09:39:50.762Z,40.40
2018-07-11T09:42:18.237Z,40.40
2018-07-11T09:44:45.662Z,40.40
2018-07-11T09:47:18.638Z,40.20
2018-07-11T09:49:46.067Z,40.20
2018-07-11T09:52:13.556Z,40.20
2018-07-11T09:54:40.958Z,40.20
2018-07-11T09:57:08.412Z,40.10
2018-07-11T09:59:35.846Z,40.10
2018-07-11T10:02:03.291Z,40.00
2018-07-11T10:04:31.419Z,39.90
2018-07-11T10:06:58.858Z,39.80
2018-07-11T10:09:26.291Z,39.80
2018-07-11T10:11:53.804Z,39.70
2018-07-11T10:14:21.668Z,39.70
2018-07-11T10:16:49.254Z,39.70
2018-07-11T10:19:16.699Z,39.60
2018-07-11T10:21:44.181Z,39.60
2018-07-11T10:24:11.588Z,39.50
2018-07-11T10:26:39.043Z,39.50
2018-07-11T10:29:06.475Z,39.50
2018-07-11T10:31:33.905Z,39.40
2018-07-11T10:34:01.342Z,39.50
2018-07-11T10:36:28.769Z,39.40
2018-07-11T10:38:56.252Z,39.40
2018-07-11T10:41:23.648Z,39.30
2018-07-11T10:43:51.106Z,39.20
2018-07-11T10:46:18.540Z,39.20
2018-07-11T10:48:45.982Z,39.30
2018-07-11T10:51:13.447Z,39.20
2018-07-11T10:53:40.888Z,39.20
2018-07-11T10:56:08.316Z,39.10
2018-07-11T10:58:35.950Z,39.10
2018-07-11T11:03:31.890Z,39.00
2018-07-11T11:06:00.423Z,39.00
2018-07-11T11:08:28.562Z,39.70
2018-07-11T11:10:56.176Z,38.90
2018-07-11T11:13:24.011Z,38.90
2018-07-11T11:15:52.215Z,38.80
2018-07-11T11:20:47.566Z,38.80
2018-07-11T11:23:14.991Z,38.80
2018-07-11T11:25:42.504Z,38.80
2018-07-11T11:28:09.911Z,38.80
2018-07-11T11:30:37.639Z,38.70
2018-07-11T11:33:05.307Z,38.80
2018-07-11T11:35:32.758Z,38.80
2018-07-11T11:38:00.196Z,38.70
2018-07-11T11:40:27.636Z,38.80
2018-07-11T11:42:55.169Z,38.80
2018-07-11T11:45:22.730Z,38.80
2018-07-11T11:47:54.470Z,39.50
2018-07-11T11:50:21.978Z,38.90
2018-07-11T11:52:49.516Z,38.90
2018-07-11T11:55:16.990Z,39.50
2018-07-11T11:57:44.527Z,38.90
2018-07-11T12:00:11.967Z,38.90
2018-07-11T12:02:39.412Z,39.00
2018-07-11T12:05:06.858Z,39.00
2018-07-11T12:07:34.301Z,39.00
2018-07-11T12:10:01.728Z,39.10
2018-07-11T12:12:29.174Z,39.00
2018-07-11T12:14:56.619Z,39.00
2018-07-11T12:17:25.054Z,39.10
2018-07-11T12:19:52.482Z,39.10
2018-07-11T12:22:21.414Z,39.20
2018-07-11T12:24:49.102Z,39.80
2018-07-11T12:27:16.791Z,39.30
2018-07-11T12:29:44.229Z,39.30
2018-07-11T12:32:11.975Z,39.40
2018-07-11T12:34:39.397Z,39.30
2018-07-11T12:37:06.838Z,39.40
2018-07-11T12:39:34.270Z,39.40
2018-07-11T12:42:01.699Z,39.40
2018-07-11T12:44:29.138Z,39.40
2018-07-11T12:46:56.579Z,39.40
2018-07-11T12:49:24.241Z,39.40
2018-07-11T12:51:51.686Z,39.50
2018-07-11T12:54:19.266Z,39.40
2018-07-11T12:56:46.703Z,39.50
2018-07-11T12:59:14.126Z,39.50
2018-07-11T13:01:41.561Z,39.60
2018-07-11T13:04:09.011Z,39.60
2018-07-11T13:06:37.038Z,39.60
2018-07-11T13:09:05.127Z,39.60
2018-07-11T13:11:32.555Z,39.70
2018-07-11T13:13:59.991Z,39.60
2018-07-11T13:16:27.410Z,39.60
2018-07-11T13:18:54.935Z,39.60
2018-07-11T13:21:22.535Z,39.60
2018-07-11T13:23:49.964Z,39.70
2018-07-11T13:26:17.416Z,39.70
2018-07-11T13:28:44.850Z,39.70
2018-07-11T13:31:12.287Z,39.70
2018-07-11T13:33:40.070Z,39.60
2018-07-11T13:36:07.539Z,39.70
2018-07-11T13:38:34.966Z,39.70
2018-07-11T13:41:02.394Z,39.70
2018-07-11T13:43:29.834Z,39.70
2018-07-11T13:45:57.270Z,39.60
2018-07-11T13:48:24.723Z,39.60
2018-07-11T13:50:52.179Z,39.60
2018-07-11T13:53:19.616Z,39.60
2018-07-11T13:55:47.045Z,39.50
2018-07-11T13:58:14.470Z,39.50
2018-07-11T14:00:41.912Z,39.40
2018-07-11T14:03:09.346Z,39.40
2018-07-11T14:05:36.771Z,40.10
2018-07-11T14:08:04.240Z,39.50
2018-07-11T14:10:31.671Z,39.50
2018-07-11T14:12:59.113Z,39.40
2018-07-11T14:15:26.548Z,39.40
2018-07-11T14:17:54.019Z,39.50
2018-07-11T14:20:22.021Z,39.40
2018-07-11T14:22:50.643Z,39.60
2018-07-11T14:25:18.975Z,39.70
2018-07-11T14:27:49.160Z,39.70
2018-07-11T14:30:16.547Z,39.70
2018-07-11T14:32:50.629Z,39.80
2018-07-11T14:35:18.348Z,39.70
2018-07-11T14:37:46.844Z,39.80
2018-07-11T14:40:18.864Z,39.70
2018-07-11T14:42:48.183Z,40.10
2018-07-11T14:45:17.040Z,40.10
2018-07-11T14:47:54.488Z,40.00
2018-07-11T14:50:23.096Z,40.30
2018-07-11T14:52:51.151Z,40.30
2018-07-11T14:55:18.755Z,40.40
2018-07-11T14:57:46.709Z,40.40
2018-07-11T15:00:14.172Z,40.30
2018-07-11T15:02:42.414Z,40.20
2018-07-11T15:05:09.951Z,40.10
2018-07-11T15:07:37.471Z,39.90
2018-07-11T15:10:05.222Z,40.70
2018-07-11T15:12:32.707Z,40.40
2018-07-11T15:15:00.143Z,40.20
2018-07-11T15:17:27.598Z,40.30
2018-07-11T15:19:55.963Z,40.20
2018-07-11T15:22:23.556Z,40.70
2018-07-11T15:24:51.374Z,40.20
2018-07-11T15:27:18.823Z,40.20
2018-07-11T15:29:46.258Z,40.20
2018-07-11T15:32:13.743Z,40.30
2018-07-11T15:34:41.199Z,40.30
2018-07-11T15:37:08.740Z,40.70
2018-07-11T15:39:36.226Z,40.70
2018-07-11T15:42:03.990Z,40.80
2018-07-11T15:44:31.491Z,40.90
2018-07-11T15:46:59.127Z,40.90
2018-07-11T15:49:26.803Z,41.50
2018-07-11T15:51:54.311Z,40.80
2018-07-11T15:54:21.885Z,40.80
2018-07-11T15:56:49.859Z,40.80
2018-07-11T15:59:19.290Z,40.80
2018-07-11T16:01:50.339Z,40.80
2018-07-11T16:04:23.186Z,40.70
2018-07-11T16:06:51.842Z,40.80
2018-07-11T16:11:47.091Z,40.90
2018-07-11T16:14:14.600Z,40.80
2018-07-11T16:16:42.072Z,40.80
2018-07-11T16:19:09.502Z,40.80
2018-07-11T16:21:36.943Z,40.80
2018-07-11T16:24:04.384Z,40.80
2018-07-11T16:26:31.820Z,40.80
2018-07-11T16:28:59.260Z,40.90
2018-07-11T16:31:26.718Z,40.90
2018-07-11T16:33:54.703Z,40.90
2018-07-11T16:36:22.528Z,40.90
2018-07-11T16:38:50.071Z,40.90
2018-07-11T16:41:17.519Z,40.90
2018-07-11T16:43:45.036Z,40.90
2018-07-11T16:46:12.562Z,41.00
2018-07-11T16:48:39.995Z,40.90
2018-07-11T16:51:07.499Z,41.10
2018-07-11T16:53:35.712Z,41.00
2018-07-11T16:56:03.160Z,41.00
2018-07-11T16:58:33.899Z,41.00
2018-07-11T17:01:01.326Z,41.00
2018-07-11T17:03:28.846Z,41.10
2018-07-11T17:05:59.332Z,41.10
2018-07-11T17:08:28.266Z,41.10
2018-07-11T17:13:23.144Z,41.10
2018-07-11T17:15:52.053Z,41.00
2018-07-11T17:18:22.509Z,41.40
2018-07-11T17:20:50.017Z,41.20
2018-07-11T17:23:17.482Z,41.20
2018-07-11T17:25:44.928Z,41.10
2018-07-11T17:28:13.259Z,41.20
2018-07-11T17:30:43.927Z,41.20
2018-07-11T17:33:12.550Z,41.30
2018-07-11T17:35:56.948Z,41.30
2018-07-11T17:38:27.135Z,41.30
2018-07-11T17:40:56.029Z,41.50
2018-07-11T17:43:26.797Z,41.30
2018-07-11T17:48:54.245Z,41.40
2018-07-11T17:51:27.102Z,41.30
2018-07-11T17:53:55.798Z,41.30
2018-07-11T17:56:26.986Z,41.30
2018-07-11T17:58:57.534Z,41.30
2018-07-11T18:01:33.343Z,41.40
2018-07-11T18:04:07.408Z,41.40
2018-07-11T18:06:35.887Z,41.40
2018-07-11T18:09:05.254Z,41.40
2018-07-11T18:11:37.529Z,41.40
2018-07-11T18:14:05.175Z,41.40
2018-07-11T18:16:45.114Z,41.40
2018-07-11T18:19:22.583Z,42.10
2018-07-11T18:21:55.584Z,41.50
2018-07-11T18:24:29.978Z,41.50
2018-07-11T18:27:03.946Z,41.60
2018-07-11T18:30:37.977Z,41.80
2018-07-11T18:33:13.082Z,41.60
2018-07-11T18:35:46.347Z,41.50
2018-07-11T18:38:19.987Z,41.60
2018-07-11T18:41:06.584Z,41.60
2018-07-11T18:43:39.608Z,41.70
2018-07-11T18:47:10.405Z,41.70
2018-07-11T18:50:14.535Z,41.80
2018-07-11T18:52:52.279Z,41.80
2018-07-11T18:55:25.601Z,41.90
2018-07-11T18:57:56.063Z,42.00
2018-07-11T19:00:29.124Z,42.90
2018-07-11T19:03:02.209Z,42.30
2018-07-11T19:05:32.756Z,42.30
2018-07-11T19:08:05.856Z,42.50
2018-07-11T19:10:38.885Z,42.50
2018-07-11T19:13:08.927Z,42.60
2018-07-11T19:15:45.099Z,42.60
2018-07-11T19:18:14.575Z,42.60
2018-07-11T19:20:47.734Z,42.80
2018-07-11T19:25:49.008Z,42.90
2018-07-11T19:28:19.214Z,42.90
2018-07-11T19:30:52.364Z,42.90
2018-07-11T19:35:50.175Z,43.00
2018-07-11T19:38:22.718Z,42.80
2018-07-11T19:40:54.827Z,42.90
2018-07-11T19:43:34.918Z,42.80
2018-07-11T19:46:06.308Z,42.90
2018-07-11T19:49:06.387Z,42.90
2018-07-11T19:51:56.403Z,43.40
2018-07-11T19:54:28.334Z,42.90
2018-07-11T19:56:57.082Z,42.80
2018-07-11T19:59:24.552Z,42.80
2018-07-11T20:01:51.980Z,42.90
2018-07-11T20:04:19.423Z,42.80
2018-07-11T20:06:46.863Z,42.80
2018-07-11T20:09:14.319Z,42.70
2018-07-11T20:11:41.759Z,42.60
2018-07-11T20:14:09.182Z,42.50
2018-07-11T20:16:36.621Z,42.40
2018-07-11T20:19:04.082Z,42.40
2018-07-11T20:21:31.499Z,42.60
2018-07-11T20:23:59.228Z,42.40
2018-07-11T20:26:26.802Z,42.20
2018-07-11T20:28:54.238Z,42.30
2018-07-11T20:31:21.689Z,42.40
2018-07-11T20:33:49.120Z,42.30
2018-07-11T20:36:16.575Z,43.10
2018-07-11T20:38:44.003Z,42.30
2018-07-11T20:41:11.458Z,42.50
2018-07-11T20:43:40.288Z,42.30
2018-07-11T20:46:08.416Z,42.50
2018-07-11T20:48:36.136Z,42.50
2018-07-11T20:51:03.567Z,42.40
2018-07-11T20:53:31.089Z,42.60
2018-07-11T20:55:58.544Z,42.50
2018-07-11T20:58:33.975Z,42.50
2018-07-11T21:01:07.006Z,42.30
2018-07-11T21:03:43.043Z,42.40
2018-07-11T21:07:18.142Z,42.40
2018-07-11T21:11:56.507Z,42.30
2018-07-11T21:16:34.407Z,42.70
2018-07-11T21:19:04.235Z,42.30
2018-07-11T21:21:38.463Z,42.40
2018-07-11T21:24:08.939Z,42.30
2018-07-11T21:26:37.071Z,42.40
2018-07-11T21:29:04.674Z,42.30
2018-07-11T21:31:32.329Z,42.20
2018-07-11T21:33:59.773Z,42.00
2018-07-11T21:36:27.210Z,42.00
2018-07-11T21:38:54.635Z,42.10
2018-07-11T21:41:22.195Z,42.10
2018-07-11T21:43:49.638Z,41.90
2018-07-11T21:46:17.107Z,42.00
2018-07-11T21:48:44.863Z,42.00
2018-07-11T21:51:12.286Z,41.70
2018-07-11T21:53:39.758Z,41.90
2018-07-11T21:56:07.315Z,42.00
2018-07-11T21:58:34.768Z,42.00
2018-07-11T22:01:03.216Z,42.00
2018-07-11T22:03:30.683Z,41.90
2018-07-11T22:05:58.151Z,41.90
2018-07-11T22:08:25.587Z,41.10
2018-07-11T22:10:53.023Z,41.70
2018-07-11T22:13:20.456Z,41.90
2018-07-11T22:15:47.883Z,41.70
2018-07-11T22:18:21.091Z,41.80
2018-07-11T22:20:48.019Z,41.90
2018-07-11T22:23:14.965Z,41.70
2018-07-11T22:25:45.890Z,41.60
2018-07-11T22:28:12.799Z,41.80
2018-07-11T22:30:39.716Z,41.70
2018-07-11T22:33:06.648Z,41.60
2018-07-11T22:35:33.651Z,41.70
2018-07-11T22:38:00.578Z,41.70
2018-07-11T22:40:27.624Z,41.60
2018-07-11T22:42:54.551Z,41.40
2018-07-11T22:45:21.475Z,41.70
2018-07-11T22:47:48.394Z,41.50
2018-07-11T22:50:15.319Z,41.70
2018-07-11T22:52:42.243Z,41.70
2018-07-11T22:55:09.163Z,41.60
2018-07-11T22:57:36.090Z,41.50
2018-07-11T23:00:03.015Z,41.50
2018-07-11T23:02:29.945Z,41.50
2018-07-11T23:04:56.859Z,41.70
2018-07-11T23:07:23.789Z,41.60
2018-07-11T23:09:50.712Z,41.60
2018-07-11T23:12:17.634Z,41.50
2018-07-11T23:14:44.559Z,41.50
2018-07-11T23:17:11.497Z,41.10
2018-07-11T23:19:38.430Z,41.50
2018-07-11T23:22:05.359Z,41.50
2018-07-11T23:24:32.274Z,41.50
2018-07-11T23:26:59.218Z,41.50
2018-07-11T23:29:26.139Z,41.40
2018-07-11T23:31:53.082Z,41.40
2018-07-11T23:34:20.002Z,41.50
2018-07-11T23:36:46.947Z,41.50
2018-07-11T23:39:13.867Z,41.40
2018-07-11T23:41:40.787Z,41.40
2018-07-11T23:44:07.706Z,41.50
2018-07-11T23:46:34.635Z,41.60
2018-07-11T23:49:01.553Z,41.40
2018-07-11T23:51:28.474Z,41.50
2018-07-11T23:53:55.395Z,41.40
2018-07-11T23:56:22.316Z,41.50
